sensor_id;sensor_type;location;lat;lon;timestamp;P1;P2;P0
57884;PMS5003;43703;51.060;-0.086;2022-09-04T00:00:02;47;46;
57884;PMS5003;43703;51.060;-0.086;2022-09-04T00:02:32;46;45;
57884;PMS5003;43703;51.060;-0.086;2022-09-04T00:07:19;56;52;
57884;PMS5003;43703;51.060;-0.086;2022-09-04T00:09:44;48;48;
57884;PMS5003;43703;51.060;-0.086;2022-09-04T00:12:08;49;49;
57884;PMS5003;43703;51.060;-0.086;2022-09-04T00:14:36;51;48;
57884;PMS5003;43703;51.060;-0.086;2022-09-04T00:16:59;48;48;
57884;PMS5003;43703;51.060;-0.086;2022-09-04T00:19:25;51;49;
57884;PMS5003;43703;51.060;-0.086;2022-09-04T00:21:51;54;53;
57884;PMS5003;43703;51.060;-0.086;2022-09-04T00:24:15;59;55;
57884;PMS5003;43703;51.060;-0.086;2022-09-04T00:26:43;54;54;
57884;PMS5003;43703;51.060;-0.086;2022-09-04T00:29:08;58;56;
57884;PMS5003;43703;51.060;-0.086;2022-09-04T00:31:33;54;50;
57884;PMS5003;43703;51.060;-0.086;2022-09-04T00:34:00;63;62;
57884;PMS5003;43703;51.060;-0.086;2022-09-04T00:36:23;56;53;
57884;PMS5003;43703;51.060;-0.086;2022-09-04T00:38:50;58;56;
57884;PMS5003;43703;51.060;-0.086;2022-09-04T00:41:15;60;59;
57884;PMS5003;43703;51.060;-0.086;2022-09-04T00:46:10;58;55;
57884;PMS5003;43703;51.060;-0.086;2022-09-04T00:48:39;60;56;
57884;PMS5003;43703;51.060;-0.086;2022-09-04T00:51:01;60;58;
57884;PMS5003;43703;51.060;-0.086;2022-09-04T00:53:27;68;65;
57884;PMS5003;43703;51.060;-0.086;2022-09-04T00:55:51;62;55;
57884;PMS5003;43703;51.060;-0.086;2022-09-04T00:58:16;59;58;
57884;PMS5003;43703;51.060;-0.086;2022-09-04T01:00:38;65;64;
57884;PMS5003;43703;51.060;-0.086;2022-09-04T01:03:09;62;61;
57884;PMS5003;43703;51.060;-0.086;2022-09-04T01:05:35;66;61;
57884;PMS5003;43703;51.060;-0.086;2022-09-04T01:07:57;78;73;
57884;PMS5003;43703;51.060;-0.086;2022-09-04T01:10:23;72;67;
57884;PMS5003;43703;51.060;-0.086;2022-09-04T01:12:47;76;70;
57884;PMS5003;43703;51.060;-0.086;2022-09-04T01:15:12;74;70;
57884;PMS5003;43703;51.060;-0.086;2022-09-04T01:17:38;75;73;
57884;PMS5003;43703;51.060;-0.086;2022-09-04T01:20:04;75;73;
57884;PMS5003;43703;51.060;-0.086;2022-09-04T01:22:32;82;74;
57884;PMS5003;43703;51.060;-0.086;2022-09-04T01:24:56;76;72;
57884;PMS5003;43703;51.060;-0.086;2022-09-04T01:27:19;69;65;
57884;PMS5003;43703;51.060;-0.086;2022-09-04T01:29:45;79;72;
57884;PMS5003;43703;51.060;-0.086;2022-09-04T01:32:11;73;69;
57884;PMS5003;43703;51.060;-0.086;2022-09-04T01:34:38;70;66;
57884;PMS5003;43703;51.060;-0.086;2022-09-04T01:37:02;69;69;
57884;PMS5003;43703;51.060;-0.086;2022-09-04T01:39:25;68;66;
57884;PMS5003;43703;51.060;-0.086;2022-09-04T01:41:52;70;68;
57884;PMS5003;43703;51.060;-0.086;2022-09-04T01:44:16;70;63;
57884;PMS5003;43703;51.060;-0.086;2022-09-04T01:46:44;66;63;
57884;PMS5003;43703;51.060;-0.086;2022-09-04T01:49:09;60;57;
57884;PMS5003;43703;51.060;-0.086;2022-09-04T01:51:36;70;65;
57884;PMS5003;43703;51.060;-0.086;2022-09-04T01:54:02;64;57;
57884;PMS5003;43703;51.060;-0.086;2022-09-04T01:56:24;57;56;
57884;PMS5003;43703;51.060;-0.086;2022-09-04T01:58:50;63;61;
57884;PMS5003;43703;51.060;-0.086;2022-09-04T02:01:16;58;55;
57884;PMS5003;43703;51.060;-0.086;2022-09-04T02:03:41;55;54;
57884;PMS5003;43703;51.060;-0.086;2022-09-04T02:06:08;60;56;
57884;PMS5003;43703;51.060;-0.086;2022-09-04T02:08:34;61;58;
57884;PMS5003;43703;51.060;-0.086;2022-09-04T02:10:59;63;60;
57884;PMS5003;43703;51.060;-0.086;2022-09-04T02:13:26;75;72;
57884;PMS5003;43703;51.060;-0.086;2022-09-04T02:15:53;63;58;
57884;PMS5003;43703;51.060;-0.086;2022-09-04T02:18:17;69;62;
57884;PMS5003;43703;51.060;-0.086;2022-09-04T02:20:43;65;59;
57884;PMS5003;43703;51.060;-0.086;2022-09-04T02:23:08;67;63;
57884;PMS5003;43703;51.060;-0.086;2022-09-04T02:25:31;67;58;
57884;PMS5003;43703;51.060;-0.086;2022-09-04T02:28:00;67;64;
57884;PMS5003;43703;51.060;-0.086;2022-09-04T02:30:21;72;60;
57884;PMS5003;43703;51.060;-0.086;2022-09-04T02:32:48;71;67;
57884;PMS5003;43703;51.060;-0.086;2022-09-04T02:35:14;66;65;
57884;PMS5003;43703;51.060;-0.086;2022-09-04T02:37:39;74;64;
57884;PMS5003;43703;51.060;-0.086;2022-09-04T02:40:04;64;58;
57884;PMS5003;43703;51.060;-0.086;2022-09-04T02:42:30;67;65;
57884;PMS5003;43703;51.060;-0.086;2022-09-04T02:44:57;70;68;
57884;PMS5003;43703;51.060;-0.086;2022-09-04T02:47:22;64;64;
57884;PMS5003;43703;51.060;-0.086;2022-09-04T02:49:49;60;58;
57884;PMS5003;43703;51.060;-0.086;2022-09-04T02:52:14;60;56;
57884;PMS5003;43703;51.060;-0.086;2022-09-04T02:54:41;68;63;
57884;PMS5003;43703;51.060;-0.086;2022-09-04T02:57:12;64;58;
57884;PMS5003;43703;51.060;-0.086;2022-09-04T02:59:31;61;61;
57884;PMS5003;43703;51.060;-0.086;2022-09-04T03:01:52;62;59;
57884;PMS5003;43703;51.060;-0.086;2022-09-04T03:04:18;62;58;
57884;PMS5003;43703;51.060;-0.086;2022-09-04T03:06:46;60;56;
57884;PMS5003;43703;51.060;-0.086;2022-09-04T03:09:09;63;63;
57884;PMS5003;43703;51.060;-0.086;2022-09-04T03:11:34;62;57;
57884;PMS5003;43703;51.060;-0.086;2022-09-04T03:14:00;65;61;
57884;PMS5003;43703;51.060;-0.086;2022-09-04T03:16:25;59;54;
57884;PMS5003;43703;51.060;-0.086;2022-09-04T03:18:54;63;58;
57884;PMS5003;43703;51.060;-0.086;2022-09-04T03:21:17;53;50;
57884;PMS5003;43703;51.060;-0.086;2022-09-04T03:23:42;57;48;
57884;PMS5003;43703;51.060;-0.086;2022-09-04T03:26:10;53;50;
57884;PMS5003;43703;51.060;-0.086;2022-09-04T03:28:37;62;59;
57884;PMS5003;43703;51.060;-0.086;2022-09-04T03:30:57;58;55;
57884;PMS5003;43703;51.060;-0.086;2022-09-04T03:33:24;52;50;
57884;PMS5003;43703;51.060;-0.086;2022-09-04T03:35:49;58;53;
57884;PMS5003;43703;51.060;-0.086;2022-09-04T03:38:16;53;51;
57884;PMS5003;43703;51.060;-0.086;2022-09-04T03:40:40;55;51;
57884;PMS5003;43703;51.060;-0.086;2022-09-04T03:43:08;49;49;
57884;PMS5003;43703;51.060;-0.086;2022-09-04T03:45:31;52;52;
57884;PMS5003;43703;51.060;-0.086;2022-09-04T03:47:58;43;43;
57884;PMS5003;43703;51.060;-0.086;2022-09-04T03:50:23;48;47;
57884;PMS5003;43703;51.060;-0.086;2022-09-04T03:55:14;46;45;
57884;PMS5003;43703;51.060;-0.086;2022-09-04T03:57:41;49;45;
57884;PMS5003;43703;51.060;-0.086;2022-09-04T04:00:04;47;46;
57884;PMS5003;43703;51.060;-0.086;2022-09-04T04:02:30;50;48;
57884;PMS5003;43703;51.060;-0.086;2022-09-04T04:07:23;48;47;
57884;PMS5003;43703;51.060;-0.086;2022-09-04T04:09:48;42;42;
57884;PMS5003;43703;51.060;-0.086;2022-09-04T04:12:12;44;40;
57884;PMS5003;43703;51.060;-0.086;2022-09-04T04:14:37;48;46;
57884;PMS5003;43703;51.060;-0.086;2022-09-04T04:17:02;42;40;
57884;PMS5003;43703;51.060;-0.086;2022-09-04T04:19:27;37;37;
57884;PMS5003;43703;51.060;-0.086;2022-09-04T04:21:55;39;38;
57884;PMS5003;43703;51.060;-0.086;2022-09-04T04:24:20;41;41;
57884;PMS5003;43703;51.060;-0.086;2022-09-04T04:26:46;41;39;
57884;PMS5003;43703;51.060;-0.086;2022-09-04T04:29:14;37;36;
57884;PMS5003;43703;51.060;-0.086;2022-09-04T04:31:39;38;35;
57884;PMS5003;43703;51.060;-0.086;2022-09-04T04:34:00;38;36;
57884;PMS5003;43703;51.060;-0.086;2022-09-04T04:36:26;34;33;
57884;PMS5003;43703;51.060;-0.086;2022-09-04T04:38:54;43;37;
57884;PMS5003;43703;51.060;-0.086;2022-09-04T04:41:20;39;36;
57884;PMS5003;43703;51.060;-0.086;2022-09-04T04:43:45;36;32;
57884;PMS5003;43703;51.060;-0.086;2022-09-04T04:46:07;44;41;
57884;PMS5003;43703;51.060;-0.086;2022-09-04T04:51:01;36;35;
57884;PMS5003;43703;51.060;-0.086;2022-09-04T04:53:24;34;34;
57884;PMS5003;43703;51.060;-0.086;2022-09-04T04:55:49;37;36;
57884;PMS5003;43703;51.060;-0.086;2022-09-04T04:58:17;34;32;
57884;PMS5003;43703;51.060;-0.086;2022-09-04T05:00:39;36;35;
57884;PMS5003;43703;51.060;-0.086;2022-09-04T05:03:05;33;33;
57884;PMS5003;43703;51.060;-0.086;2022-09-04T05:07:56;31;29;
57884;PMS5003;43703;51.060;-0.086;2022-09-04T05:10:22;34;33;
57884;PMS5003;43703;51.060;-0.086;2022-09-04T05:12:52;36;32;
57884;PMS5003;43703;51.060;-0.086;2022-09-04T05:15:14;29;29;
57884;PMS5003;43703;51.060;-0.086;2022-09-04T05:17:39;36;34;
57884;PMS5003;43703;51.060;-0.086;2022-09-04T05:22:30;32;31;
57884;PMS5003;43703;51.060;-0.086;2022-09-04T05:24:58;32;32;
57884;PMS5003;43703;51.060;-0.086;2022-09-04T05:29:47;36;34;
57884;PMS5003;43703;51.060;-0.086;2022-09-04T05:32:12;27;27;
57884;PMS5003;43703;51.060;-0.086;2022-09-04T05:34:46;30;28;
57884;PMS5003;43703;51.060;-0.086;2022-09-04T05:37:06;26;26;
57884;PMS5003;43703;51.060;-0.086;2022-09-04T05:39:29;25;25;
57884;PMS5003;43703;51.060;-0.086;2022-09-04T05:41:58;30;29;
57884;PMS5003;43703;51.060;-0.086;2022-09-04T05:46:48;24;23;
57884;PMS5003;43703;51.060;-0.086;2022-09-04T05:49:13;21;19;
57884;PMS5003;43703;51.060;-0.086;2022-09-04T05:54:05;20;17;
57884;PMS5003;43703;51.060;-0.086;2022-09-04T05:58:55;19;19;
57884;PMS5003;43703;51.060;-0.086;2022-09-04T06:01:21;18;18;
57884;PMS5003;43703;51.060;-0.086;2022-09-04T06:06:12;16;14;
57884;PMS5003;43703;51.060;-0.086;2022-09-04T06:08:42;16;16;
57884;PMS5003;43703;51.060;-0.086;2022-09-04T06:11:03;13;13;
57884;PMS5003;43703;51.060;-0.086;2022-09-04T06:13:30;11;11;
57884;PMS5003;43703;51.060;-0.086;2022-09-04T06:15:53;15;14;
57884;PMS5003;43703;51.060;-0.086;2022-09-04T06:18:21;16;14;
57884;PMS5003;43703;51.060;-0.086;2022-09-04T06:20:48;10;10;
57884;PMS5003;43703;51.060;-0.086;2022-09-04T06:23:12;10;10;
57884;PMS5003;43703;51.060;-0.086;2022-09-04T06:28:04;13;12;
57884;PMS5003;43703;51.060;-0.086;2022-09-04T06:30:28;13;13;
57884;PMS5003;43703;51.060;-0.086;2022-09-04T06:32:55;11;11;
57884;PMS5003;43703;51.060;-0.086;2022-09-04T06:35:20;14;10;
57884;PMS5003;43703;51.060;-0.086;2022-09-04T06:37:45;9;9;
57884;PMS5003;43703;51.060;-0.086;2022-09-04T06:40:14;13;13;
57884;PMS5003;43703;51.060;-0.086;2022-09-04T06:42:39;10;10;
57884;PMS5003;43703;51.060;-0.086;2022-09-04T06:45:05;12;11;
57884;PMS5003;43703;51.060;-0.086;2022-09-04T06:47:28;13;13;
57884;PMS5003;43703;51.060;-0.086;2022-09-04T06:49:59;10;8;
57884;PMS5003;43703;51.060;-0.086;2022-09-04T06:52:19;9;9;
57884;PMS5003;43703;51.060;-0.086;2022-09-04T06:54:45;10;8;
57884;PMS5003;43703;51.060;-0.086;2022-09-04T06:57:14;9;7;
57884;PMS5003;43703;51.060;-0.086;2022-09-04T06:59:39;9;9;
57884;PMS5003;43703;51.060;-0.086;2022-09-04T07:02:04;10;8;
57884;PMS5003;43703;51.060;-0.086;2022-09-04T07:04:30;9;9;
57884;PMS5003;43703;51.060;-0.086;2022-09-04T07:06:57;9;8;
57884;PMS5003;43703;51.060;-0.086;2022-09-04T07:09:19;11;10;
57884;PMS5003;43703;51.060;-0.086;2022-09-04T07:11:52;9;8;
57884;PMS5003;43703;51.060;-0.086;2022-09-04T07:14:16;8;8;
57884;PMS5003;43703;51.060;-0.086;2022-09-04T07:16:37;10;8;
57884;PMS5003;43703;51.060;-0.086;2022-09-04T07:21:29;10;9;
57884;PMS5003;43703;51.060;-0.086;2022-09-04T07:23:55;8;7;
57884;PMS5003;43703;51.060;-0.086;2022-09-04T07:26:21;10;9;
57884;PMS5003;43703;51.060;-0.086;2022-09-04T07:28:51;8;8;
57884;PMS5003;43703;51.060;-0.086;2022-09-04T07:31:12;11;9;
57884;PMS5003;43703;51.060;-0.086;2022-09-04T07:33:39;6;6;
57884;PMS5003;43703;51.060;-0.086;2022-09-04T07:36:04;6;6;
57884;PMS5003;43703;51.060;-0.086;2022-09-04T07:38:31;9;9;
57884;PMS5003;43703;51.060;-0.086;2022-09-04T07:40:55;10;10;
57884;PMS5003;43703;51.060;-0.086;2022-09-04T07:43:20;11;9;
57884;PMS5003;43703;51.060;-0.086;2022-09-04T07:45:47;7;7;
57884;PMS5003;43703;51.060;-0.086;2022-09-04T07:48:15;7;7;
57884;PMS5003;43703;51.060;-0.086;2022-09-04T07:50:39;7;7;
57884;PMS5003;43703;51.060;-0.086;2022-09-04T07:53:08;9;8;
57884;PMS5003;43703;51.060;-0.086;2022-09-04T07:55:33;9;9;
57884;PMS5003;43703;51.060;-0.086;2022-09-04T07:58:00;5;5;
57884;PMS5003;43703;51.060;-0.086;2022-09-04T08:00:19;10;9;
57884;PMS5003;43703;51.060;-0.086;2022-09-04T08:02:52;7;7;
57884;PMS5003;43703;51.060;-0.086;2022-09-04T08:05:16;8;7;
57884;PMS5003;43703;51.060;-0.086;2022-09-04T08:07:46;7;7;
57884;PMS5003;43703;51.060;-0.086;2022-09-04T08:10:06;8;7;
57884;PMS5003;43703;51.060;-0.086;2022-09-04T08:12:33;6;6;
57884;PMS5003;43703;51.060;-0.086;2022-09-04T08:14:55;12;9;
57884;PMS5003;43703;51.060;-0.086;2022-09-04T08:17:28;14;8;
57884;PMS5003;43703;51.060;-0.086;2022-09-04T08:19:46;8;7;
57884;PMS5003;43703;51.060;-0.086;2022-09-04T08:22:12;9;9;
57884;PMS5003;43703;51.060;-0.086;2022-09-04T08:24:46;7;7;
57884;PMS5003;43703;51.060;-0.086;2022-09-04T08:27:07;9;8;
57884;PMS5003;43703;51.060;-0.086;2022-09-04T08:31:58;6;6;
57884;PMS5003;43703;51.060;-0.086;2022-09-04T08:36:47;10;9;
57884;PMS5003;43703;51.060;-0.086;2022-09-04T08:39:14;6;4;
57884;PMS5003;43703;51.060;-0.086;2022-09-04T08:41:43;10;7;
57884;PMS5003;43703;51.060;-0.086;2022-09-04T08:46:36;9;9;
57884;PMS5003;43703;51.060;-0.086;2022-09-04T08:51:27;6;6;
57884;PMS5003;43703;51.060;-0.086;2022-09-04T08:53:55;7;6;
57884;PMS5003;43703;51.060;-0.086;2022-09-04T08:58:47;5;5;
57884;PMS5003;43703;51.060;-0.086;2022-09-04T09:01:12;8;8;
57884;PMS5003;43703;51.060;-0.086;2022-09-04T09:03:39;7;5;
57884;PMS5003;43703;51.060;-0.086;2022-09-04T09:06:03;5;5;
57884;PMS5003;43703;51.060;-0.086;2022-09-04T09:08:23;6;4;
57884;PMS5003;43703;51.060;-0.086;2022-09-04T09:15:47;7;7;
57884;PMS5003;43703;51.060;-0.086;2022-09-04T09:18:09;6;6;
57884;PMS5003;43703;51.060;-0.086;2022-09-04T09:20:34;4;4;
57884;PMS5003;43703;51.060;-0.086;2022-09-04T09:25:22;6;5;
57884;PMS5003;43703;51.060;-0.086;2022-09-04T09:30:13;5;5;
57884;PMS5003;43703;51.060;-0.086;2022-09-04T09:37:36;5;5;
57884;PMS5003;43703;51.060;-0.086;2022-09-04T09:40:02;8;6;
57884;PMS5003;43703;51.060;-0.086;2022-09-04T09:47:19;5;5;
57884;PMS5003;43703;51.060;-0.086;2022-09-04T09:49:47;4;4;
57884;PMS5003;43703;51.060;-0.086;2022-09-04T09:57:05;6;6;
57884;PMS5003;43703;51.060;-0.086;2022-09-04T10:01:50;8;5;
57884;PMS5003;43703;51.060;-0.086;2022-09-04T10:09:14;8;6;
57884;PMS5003;43703;51.060;-0.086;2022-09-04T10:16:29;7;6;
57884;PMS5003;43703;51.060;-0.086;2022-09-04T10:21:18;8;6;
57884;PMS5003;43703;51.060;-0.086;2022-09-04T10:23:46;10;9;
57884;PMS5003;43703;51.060;-0.086;2022-09-04T10:26:11;7;7;
57884;PMS5003;43703;51.060;-0.086;2022-09-04T10:31:05;5;5;
57884;PMS5003;43703;51.060;-0.086;2022-09-04T10:33:25;5;5;
57884;PMS5003;43703;51.060;-0.086;2022-09-04T10:35:54;8;7;
57884;PMS5003;43703;51.060;-0.086;2022-09-04T10:38:18;8;6;
57884;PMS5003;43703;51.060;-0.086;2022-09-04T10:40:44;7;6;
57884;PMS5003;43703;51.060;-0.086;2022-09-04T10:45:31;6;6;
57884;PMS5003;43703;51.060;-0.086;2022-09-04T10:50:25;8;8;
57884;PMS5003;43703;51.060;-0.086;2022-09-04T10:55:17;7;6;
57884;PMS5003;43703;51.060;-0.086;2022-09-04T10:57:44;5;5;
57884;PMS5003;43703;51.060;-0.086;2022-09-04T11:00:06;8;5;
57884;PMS5003;43703;51.060;-0.086;2022-09-04T11:09:55;6;6;
57884;PMS5003;43703;51.060;-0.086;2022-09-04T11:12:19;6;6;
57884;PMS5003;43703;51.060;-0.086;2022-09-04T11:29:17;7;7;
57884;PMS5003;43703;51.060;-0.086;2022-09-04T11:31:45;7;7;
57884;PMS5003;43703;51.060;-0.086;2022-09-04T11:36:37;8;7;
57884;PMS5003;43703;51.060;-0.086;2022-09-04T11:41:30;7;7;
57884;PMS5003;43703;51.060;-0.086;2022-09-04T11:46:21;10;7;
57884;PMS5003;43703;51.060;-0.086;2022-09-04T11:48:46;9;8;
57884;PMS5003;43703;51.060;-0.086;2022-09-04T11:51:14;5;5;
57884;PMS5003;43703;51.060;-0.086;2022-09-04T11:53:38;8;7;
57884;PMS5003;43703;51.060;-0.086;2022-09-04T11:56:05;6;6;
57884;PMS5003;43703;51.060;-0.086;2022-09-04T11:58:29;12;6;
57884;PMS5003;43703;51.060;-0.086;2022-09-04T12:00:53;10;10;
57884;PMS5003;43703;51.060;-0.086;2022-09-04T12:05:44;6;6;
57884;PMS5003;43703;51.060;-0.086;2022-09-04T12:08:12;5;5;
57884;PMS5003;43703;51.060;-0.086;2022-09-04T12:10:35;6;6;
57884;PMS5003;43703;51.060;-0.086;2022-09-04T12:15:31;8;8;
57884;PMS5003;43703;51.060;-0.086;2022-09-04T12:25:14;4;4;
57884;PMS5003;43703;51.060;-0.086;2022-09-04T12:37:24;5;5;
57884;PMS5003;43703;51.060;-0.086;2022-09-04T12:42:09;19;16;
57884;PMS5003;43703;51.060;-0.086;2022-09-04T12:44:36;6;6;
57884;PMS5003;43703;51.060;-0.086;2022-09-04T12:47:02;9;8;
57884;PMS5003;43703;51.060;-0.086;2022-09-04T12:51:52;9;6;
57884;PMS5003;43703;51.060;-0.086;2022-09-04T12:54:20;9;7;
57884;PMS5003;43703;51.060;-0.086;2022-09-04T12:56:44;4;4;
57884;PMS5003;43703;51.060;-0.086;2022-09-04T12:59:13;8;6;
57884;PMS5003;43703;51.060;-0.086;2022-09-04T13:01:37;6;5;
57884;PMS5003;43703;51.060;-0.086;2022-09-04T13:04:01;10;7;
57884;PMS5003;43703;51.060;-0.086;2022-09-04T13:06:27;6;6;
57884;PMS5003;43703;51.060;-0.086;2022-09-04T13:08:53;5;5;
57884;PMS5003;43703;51.060;-0.086;2022-09-04T13:11:20;6;6;
57884;PMS5003;43703;51.060;-0.086;2022-09-04T13:13:45;9;8;
57884;PMS5003;43703;51.060;-0.086;2022-09-04T13:16:10;5;5;
57884;PMS5003;43703;51.060;-0.086;2022-09-04T13:18:37;7;5;
57884;PMS5003;43703;51.060;-0.086;2022-09-04T13:21:01;5;5;
57884;PMS5003;43703;51.060;-0.086;2022-09-04T13:23:32;5;5;
57884;PMS5003;43703;51.060;-0.086;2022-09-04T13:25:55;6;5;
57884;PMS5003;43703;51.060;-0.086;2022-09-04T13:28:18;6;5;
57884;PMS5003;43703;51.060;-0.086;2022-09-04T13:30:44;5;5;
57884;PMS5003;43703;51.060;-0.086;2022-09-04T13:33:14;8;8;
57884;PMS5003;43703;51.060;-0.086;2022-09-04T13:38:07;7;7;
57884;PMS5003;43703;51.060;-0.086;2022-09-04T13:40:30;6;6;
57884;PMS5003;43703;51.060;-0.086;2022-09-04T13:45:17;6;4;
57884;PMS5003;43703;51.060;-0.086;2022-09-04T13:47:44;5;5;
57884;PMS5003;43703;51.060;-0.086;2022-09-04T13:50:09;6;5;
57884;PMS5003;43703;51.060;-0.086;2022-09-04T13:52:35;4;3;
57884;PMS5003;43703;51.060;-0.086;2022-09-04T13:55:00;4;4;
57884;PMS5003;43703;51.060;-0.086;2022-09-04T13:57:26;4;4;
57884;PMS5003;43703;51.060;-0.086;2022-09-04T13:59:51;6;5;
57884;PMS5003;43703;51.060;-0.086;2022-09-04T14:02:18;6;6;
57884;PMS5003;43703;51.060;-0.086;2022-09-04T14:04:43;7;4;
57884;PMS5003;43703;51.060;-0.086;2022-09-04T14:07:10;6;5;
57884;PMS5003;43703;51.060;-0.086;2022-09-04T14:09:36;5;5;
57884;PMS5003;43703;51.060;-0.086;2022-09-04T14:16:52;8;8;
57884;PMS5003;43703;51.060;-0.086;2022-09-04T14:19:21;5;5;
57884;PMS5003;43703;51.060;-0.086;2022-09-04T14:21:48;7;6;
57884;PMS5003;43703;51.060;-0.086;2022-09-04T14:24:11;5;4;
57884;PMS5003;43703;51.060;-0.086;2022-09-04T14:26:37;5;5;
57884;PMS5003;43703;51.060;-0.086;2022-09-04T14:29:02;7;6;
57884;PMS5003;43703;51.060;-0.086;2022-09-04T14:31:28;5;5;
57884;PMS5003;43703;51.060;-0.086;2022-09-04T14:33:54;6;4;
57884;PMS5003;43703;51.060;-0.086;2022-09-04T14:36:21;7;5;
57884;PMS5003;43703;51.060;-0.086;2022-09-04T14:41:14;3;3;
57884;PMS5003;43703;51.060;-0.086;2022-09-04T14:43:38;6;6;
57884;PMS5003;43703;51.060;-0.086;2022-09-04T14:46:03;5;4;
57884;PMS5003;43703;51.060;-0.086;2022-09-04T14:48:27;6;6;
57884;PMS5003;43703;51.060;-0.086;2022-09-04T14:50:53;6;6;
57884;PMS5003;43703;51.060;-0.086;2022-09-04T14:53:20;4;3;
57884;PMS5003;43703;51.060;-0.086;2022-09-04T14:58:11;11;10;
57884;PMS5003;43703;51.060;-0.086;2022-09-04T15:03:04;7;5;
57884;PMS5003;43703;51.060;-0.086;2022-09-04T15:05:27;6;6;
57884;PMS5003;43703;51.060;-0.086;2022-09-04T15:07:54;4;4;
57884;PMS5003;43703;51.060;-0.086;2022-09-04T15:10:19;6;4;
57884;PMS5003;43703;51.060;-0.086;2022-09-04T15:12:45;5;5;
57884;PMS5003;43703;51.060;-0.086;2022-09-04T15:15:13;6;6;
57884;PMS5003;43703;51.060;-0.086;2022-09-04T15:17:36;6;5;
57884;PMS5003;43703;51.060;-0.086;2022-09-04T15:20:02;7;5;
57884;PMS5003;43703;51.060;-0.086;2022-09-04T15:22:28;4;4;
57884;PMS5003;43703;51.060;-0.086;2022-09-04T15:24:54;5;5;
57884;PMS5003;43703;51.060;-0.086;2022-09-04T15:27:19;5;5;
57884;PMS5003;43703;51.060;-0.086;2022-09-04T15:29:53;5;5;
57884;PMS5003;43703;51.060;-0.086;2022-09-04T15:32:10;5;5;
57884;PMS5003;43703;51.060;-0.086;2022-09-04T15:34:36;5;4;
57884;PMS5003;43703;51.060;-0.086;2022-09-04T15:39:30;7;6;
57884;PMS5003;43703;51.060;-0.086;2022-09-04T15:41:54;6;5;
57884;PMS5003;43703;51.060;-0.086;2022-09-04T15:44:21;7;7;
57884;PMS5003;43703;51.060;-0.086;2022-09-04T15:46:49;7;7;
57884;PMS5003;43703;51.060;-0.086;2022-09-04T15:49:15;4;4;
57884;PMS5003;43703;51.060;-0.086;2022-09-04T15:51:38;5;5;
57884;PMS5003;43703;51.060;-0.086;2022-09-04T15:54:11;7;5;
57884;PMS5003;43703;51.060;-0.086;2022-09-04T15:56:30;5;5;
57884;PMS5003;43703;51.060;-0.086;2022-09-04T15:58:56;5;5;
57884;PMS5003;43703;51.060;-0.086;2022-09-04T16:01:21;8;7;
57884;PMS5003;43703;51.060;-0.086;2022-09-04T16:03:52;7;6;
57884;PMS5003;43703;51.060;-0.086;2022-09-04T16:06:14;5;5;
57884;PMS5003;43703;51.060;-0.086;2022-09-04T16:08:39;5;4;
57884;PMS5003;43703;51.060;-0.086;2022-09-04T16:11:04;5;5;
57884;PMS5003;43703;51.060;-0.086;2022-09-04T16:13:33;6;6;
57884;PMS5003;43703;51.060;-0.086;2022-09-04T16:15:56;7;5;
57884;PMS5003;43703;51.060;-0.086;2022-09-04T16:18:28;7;7;
57884;PMS5003;43703;51.060;-0.086;2022-09-04T16:20:48;5;5;
57884;PMS5003;43703;51.060;-0.086;2022-09-04T16:23:13;4;4;
57884;PMS5003;43703;51.060;-0.086;2022-09-04T16:25:39;6;6;
57884;PMS5003;43703;51.060;-0.086;2022-09-04T16:28:05;4;4;
57884;PMS5003;43703;51.060;-0.086;2022-09-04T16:30:34;4;4;
57884;PMS5003;43703;51.060;-0.086;2022-09-04T16:32:56;6;6;
57884;PMS5003;43703;51.060;-0.086;2022-09-04T16:35:22;5;5;
57884;PMS5003;43703;51.060;-0.086;2022-09-04T16:37:49;7;7;
57884;PMS5003;43703;51.060;-0.086;2022-09-04T16:40:20;6;6;
57884;PMS5003;43703;51.060;-0.086;2022-09-04T16:42:40;5;5;
57884;PMS5003;43703;51.060;-0.086;2022-09-04T16:45:08;7;7;
57884;PMS5003;43703;51.060;-0.086;2022-09-04T16:47:32;5;4;
57884;PMS5003;43703;51.060;-0.086;2022-09-04T16:49:58;5;5;
57884;PMS5003;43703;51.060;-0.086;2022-09-04T16:52:29;4;4;
57884;PMS5003;43703;51.060;-0.086;2022-09-04T16:54:49;5;5;
57884;PMS5003;43703;51.060;-0.086;2022-09-04T16:57:14;5;4;
57884;PMS5003;43703;51.060;-0.086;2022-09-04T16:59:40;6;6;
57884;PMS5003;43703;51.060;-0.086;2022-09-04T17:02:07;6;6;
57884;PMS5003;43703;51.060;-0.086;2022-09-04T17:04:34;6;4;
57884;PMS5003;43703;51.060;-0.086;2022-09-04T17:06:59;6;6;
57884;PMS5003;43703;51.060;-0.086;2022-09-04T17:09:24;5;4;
57884;PMS5003;43703;51.060;-0.086;2022-09-04T17:11:49;8;6;
57884;PMS5003;43703;51.060;-0.086;2022-09-04T17:14:17;5;5;
57884;PMS5003;43703;51.060;-0.086;2022-09-04T17:19:06;7;6;
57884;PMS5003;43703;51.060;-0.086;2022-09-04T17:21:33;6;6;
57884;PMS5003;43703;51.060;-0.086;2022-09-04T17:23:58;6;6;
57884;PMS5003;43703;51.060;-0.086;2022-09-04T17:26:25;6;6;
57884;PMS5003;43703;51.060;-0.086;2022-09-04T17:28:51;5;5;
57884;PMS5003;43703;51.060;-0.086;2022-09-04T17:31:16;5;5;
57884;PMS5003;43703;51.060;-0.086;2022-09-04T17:33:43;5;5;
57884;PMS5003;43703;51.060;-0.086;2022-09-04T17:36:08;6;4;
57884;PMS5003;43703;51.060;-0.086;2022-09-04T17:38:33;6;5;
57884;PMS5003;43703;51.060;-0.086;2022-09-04T17:41:03;4;4;
57884;PMS5003;43703;51.060;-0.086;2022-09-04T17:43:27;5;5;
57884;PMS5003;43703;51.060;-0.086;2022-09-04T17:45:53;5;5;
57884;PMS5003;43703;51.060;-0.086;2022-09-04T17:48:18;7;7;
57884;PMS5003;43703;51.060;-0.086;2022-09-04T17:50:45;5;4;
57884;PMS5003;43703;51.060;-0.086;2022-09-04T17:53:08;5;5;
57884;PMS5003;43703;51.060;-0.086;2022-09-04T17:55:34;7;7;
57884;PMS5003;43703;51.060;-0.086;2022-09-04T17:58:01;5;5;
57884;PMS5003;43703;51.060;-0.086;2022-09-04T18:00:27;5;5;
57884;PMS5003;43703;51.060;-0.086;2022-09-04T18:02:51;6;6;
57884;PMS5003;43703;51.060;-0.086;2022-09-04T18:05:17;5;5;
57884;PMS5003;43703;51.060;-0.086;2022-09-04T18:07:43;8;7;
57884;PMS5003;43703;51.060;-0.086;2022-09-04T18:10:11;6;6;
57884;PMS5003;43703;51.060;-0.086;2022-09-04T18:12:35;5;5;
57884;PMS5003;43703;51.060;-0.086;2022-09-04T18:15:01;5;4;
57884;PMS5003;43703;51.060;-0.086;2022-09-04T18:17:27;6;6;
57884;PMS5003;43703;51.060;-0.086;2022-09-04T18:19:54;12;11;
57884;PMS5003;43703;51.060;-0.086;2022-09-04T18:22:21;9;8;
57884;PMS5003;43703;51.060;-0.086;2022-09-04T18:24:45;12;10;
57884;PMS5003;43703;51.060;-0.086;2022-09-04T18:27:09;19;19;
57884;PMS5003;43703;51.060;-0.086;2022-09-04T18:29:40;14;13;
57884;PMS5003;43703;51.060;-0.086;2022-09-04T18:32:01;11;9;
57884;PMS5003;43703;51.060;-0.086;2022-09-04T18:34:26;10;10;
57884;PMS5003;43703;51.060;-0.086;2022-09-04T18:36:54;8;8;
57884;PMS5003;43703;51.060;-0.086;2022-09-04T18:39:22;15;13;
57884;PMS5003;43703;51.060;-0.086;2022-09-04T18:44:10;13;13;
57884;PMS5003;43703;51.060;-0.086;2022-09-04T18:46:33;16;16;
57884;PMS5003;43703;51.060;-0.086;2022-09-04T18:49:00;11;9;
57884;PMS5003;43703;51.060;-0.086;2022-09-04T18:51:26;10;10;
57884;PMS5003;43703;51.060;-0.086;2022-09-04T18:53:51;15;13;
57884;PMS5003;43703;51.060;-0.086;2022-09-04T18:56:17;12;10;
57884;PMS5003;43703;51.060;-0.086;2022-09-04T18:58:48;21;19;
57884;PMS5003;43703;51.060;-0.086;2022-09-04T19:03:37;9;5;